»·PEaware :: N421TK KMHV-KSBD

N421TK :: KMHV-KSBD

FLIGHT INFORMATION

Flight Status: Arrived
Operator: Privately registered:
United States
More flights under this callsign
Pilot: Valentino D. (23154)
Aircraft: CESSNA 172 SKYHAWK
(C172)
More flights by this aircraft type
Origin: KMHV Mojave
United States
Destination: KSBD San Bernardino Intl
United States
More flights between these airports :: More routes between these airports
Route: +
File this flight plan on PilotEdge
Remarks: +CW / Cat 6
Altitude:
(Current/Filed)
7,500ft
Speed:
(Current/Filed)
110kts
Departed: 16-Apr-19 02:02 PM
Arrived: 16-Apr-19 02:50 PM
Distance/Time
Traveled:
73nm/0:47
Distance/Time
To Go:
Arrived

Flight Plot

Page will automatically refresh every two minutes.

Flight plan parsing failed; only flown route is shown


Map Options




Map Legend


Flown Route
Filed Route
Departure Airport
Arrival Airport
Navaid (VOR, NDB)
Fix

Horizontal Profiles

Position Reports

Time Latitude Longitude Heading Altitude Ground
Speed
16-Apr-19 13:51 35.057015 -118.155171 72 2757ft 0kts
16-Apr-19 13:52 35.057015 -118.155171 72 2757ft 0kts
16-Apr-19 13:53 35.057015 -118.155171 72 2757ft 0kts
16-Apr-19 13:54 35.057186 -118.154686 68 2757ft 11kts
16-Apr-19 13:55 35.057510 -118.149988 86 2745ft 16kts
16-Apr-19 13:56 35.057597 -118.145890 89 2737ft 20kts
16-Apr-19 13:57 35.058346 -118.142621 358 2731ft 0kts
16-Apr-19 13:58 35.058346 -118.142621 358 2731ft 0kts
16-Apr-19 13:59 35.058346 -118.142621 358 2731ft 0kts
16-Apr-19 14:00 35.058691 -118.142636 349 2731ft 11kts
16-Apr-19 14:01 35.059158 -118.157445 277 2880ft 93kts
16-Apr-19 14:02 35.055122 -118.190847 253 3672ft 102kts
16-Apr-19 14:03 35.041373 -118.221747 239 4465ft 105kts
16-Apr-19 14:04 35.020272 -118.247315 221 5203ft 107kts
16-Apr-19 14:05 34.995656 -118.270072 219 5842ft 110kts
16-Apr-19 14:06 34.967601 -118.287877 210 6448ft 113kts
16-Apr-19 14:07 34.938712 -118.304587 207 7013ft 115kts
16-Apr-19 14:08 34.907787 -118.315470 177 7536ft 119kts
16-Apr-19 14:09 34.877101 -118.301582 150 7657ft 118kts
16-Apr-19 14:10 34.847703 -118.280932 144 7557ft 122kts
16-Apr-19 14:11 34.827913 -118.248474 110 7551ft 122kts
16-Apr-19 14:12 34.814503 -118.209416 107 7545ft 125kts
16-Apr-19 14:13 34.799682 -118.170541 118 7537ft 127kts
16-Apr-19 14:14 34.777088 -118.136647 128 7532ft 132kts
16-Apr-19 14:15 34.751654 -118.102106 129 7559ft 138kts
16-Apr-19 14:16 34.725723 -118.067048 129 7555ft 140kts
16-Apr-19 14:17 34.699586 -118.031829 129 7550ft 140kts
16-Apr-19 14:18 34.673448 -117.996609 129 7546ft 140kts
16-Apr-19 14:19 34.647280 -117.961338 129 7543ft 140kts
16-Apr-19 14:20 34.621181 -117.925845 127 7541ft 140kts
16-Apr-19 14:21 34.597562 -117.888919 124 7563ft 139kts
16-Apr-19 14:22 34.573081 -117.853289 128 7557ft 130kts
16-Apr-19 14:23 34.549527 -117.821128 129 7553ft 126kts
16-Apr-19 14:24 34.536992 -117.804206 129 7552ft 125kts
16-Apr-19 14:25 34.528571 -117.792846 130 7550ft 126kts
16-Apr-19 14:26 34.508784 -117.766218 131 7559ft 138kts
16-Apr-19 14:28 34.495236 -117.748080 131 7559ft 135kts
16-Apr-19 14:29 34.475721 -117.721850 137 7562ft 128kts
16-Apr-19 14:30 34.452143 -117.690367 137 7570ft 127kts
16-Apr-19 14:31 34.427422 -117.659255 145 7510ft 127kts
16-Apr-19 14:32 34.401383 -117.630980 139 7519ft 126kts
16-Apr-19 14:33 34.380371 -117.603481 138 7524ft 126kts
16-Apr-19 14:34 34.364246 -117.582001 137 7537ft 117kts
16-Apr-19 14:35 34.342635 -117.553238 137 7538ft 114kts
16-Apr-19 14:36 34.319744 -117.522807 136 7166ft 129kts
16-Apr-19 14:37 34.296064 -117.491227 138 6657ft 120kts
16-Apr-19 14:38 34.275220 -117.463622 136 6195ft 125kts
16-Apr-19 14:39 34.251671 -117.432329 138 5698ft 125kts
16-Apr-19 14:40 34.228138 -117.401153 137 5189ft 124kts
16-Apr-19 14:41 34.204947 -117.370405 137 4694ft 123kts
16-Apr-19 14:42 34.181768 -117.339709 137 4197ft 123kts
16-Apr-19 14:43 34.166664 -117.300219 108 3330ft 141kts
16-Apr-19 14:44 34.149167 -117.263592 163 2466ft 122kts
16-Apr-19 14:45 34.119566 -117.251218 183 1981ft 110kts
16-Apr-19 14:45 34.104822 -117.258743 243 1656ft 113kts
16-Apr-19 14:47 34.090796 -117.286373 164 1749ft 74kts
16-Apr-19 14:48 34.086192 -117.265603 67 1532ft 60kts
16-Apr-19 14:48 34.090999 -117.249345 69 1111ft 55kts
16-Apr-19 14:49 34.094027 -117.242060 355 1099ft 5kts
16-Apr-19 14:51 34.096138 -117.239397 37 1107ft 7kts
16-Apr-19 14:51 34.098658 -117.238085 343 1110ft 15kts
16-Apr-19 14:52 34.103153 -117.241191 317 1107ft 14kts
16-Apr-19 14:53 34.104843 -117.242710 156 1104ft 0kts

Navigation Log

Ident Type
Flight plan parsing failed, navigation log unavailable